createdAt,value
2023-05-21T00:00:02.261Z,51.0
2023-05-21T00:02:03.573Z,50.0
2023-05-21T00:04:03.081Z,50.0
2023-05-21T00:06:03.342Z,51.0
2023-05-21T00:08:02.341Z,50.0
2023-05-21T00:10:02.391Z,50.0
2023-05-21T00:12:02.148Z,50.0
2023-05-21T00:14:02.155Z,50.0
2023-05-21T00:16:02.783Z,49.0
2023-05-21T00:18:03.024Z,49.0
2023-05-21T00:20:05.232Z,48.0
2023-05-21T00:22:03.152Z,50.0
2023-05-21T00:24:02.108Z,45.0
2023-05-21T00:26:02.156Z,39.0
2023-05-21T00:28:02.358Z,38.0
2023-05-21T00:30:03.531Z,39.0
2023-05-21T00:32:02.624Z,39.0
2023-05-21T00:34:02.176Z,42.0
2023-05-21T00:36:05.468Z,43.0
2023-05-21T00:38:02.926Z,39.0
2023-05-21T00:40:06.041Z,42.0
2023-05-21T00:42:03.784Z,43.0
2023-05-21T00:44:02.596Z,44.0
2023-05-21T00:46:02.462Z,45.0
2023-05-21T00:48:03.622Z,45.0
2023-05-21T00:50:03.154Z,44.0
2023-05-21T00:52:02.209Z,45.0
2023-05-21T00:54:02.780Z,46.0
2023-05-21T00:56:02.640Z,46.0
2023-05-21T00:58:04.066Z,45.0
2023-05-21T01:00:04.113Z,46.0
2023-05-21T01:02:04.883Z,44.0
2023-05-21T01:04:02.602Z,44.0
2023-05-21T01:06:03.954Z,43.0
2023-05-21T01:08:03.172Z,45.0
2023-05-21T01:10:04.540Z,45.0
2023-05-21T01:12:03.557Z,42.0
2023-05-21T01:14:04.588Z,44.0
2023-05-21T01:16:06.146Z,46.0
2023-05-21T01:18:02.598Z,45.0
2023-05-21T01:20:09.600Z,44.0
2023-05-21T01:22:05.808Z,44.0
2023-05-21T01:24:04.849Z,45.0
2023-05-21T01:26:02.154Z,44.0
2023-05-21T01:28:02.407Z,42.0
2023-05-21T01:30:03.497Z,41.0
2023-05-21T01:32:12.484Z,42.0
2023-05-21T01:34:07.565Z,41.0
2023-05-21T01:36:11.146Z,40.0
2023-05-21T01:38:09.313Z,40.0
2023-05-21T01:40:09.338Z,41.0
2023-05-21T01:42:05.035Z,41.0
2023-05-21T01:44:04.563Z,41.0
2023-05-21T01:46:03.428Z,41.0
2023-05-21T01:48:05.236Z,42.0
2023-05-21T01:50:03.497Z,43.0
2023-05-21T01:52:02.370Z,43.0
2023-05-21T01:54:02.240Z,44.0
2023-05-21T01:56:12.697Z,44.0
2023-05-21T01:58:02.780Z,45.0
2023-05-21T02:00:02.499Z,46.0
2023-05-21T02:02:02.207Z,46.0
2023-05-21T02:04:02.216Z,47.0
2023-05-21T02:06:02.988Z,48.0
2023-05-21T02:08:02.350Z,49.0
2023-05-21T02:10:02.109Z,49.0
2023-05-21T02:12:03.585Z,49.0
2023-05-21T02:14:03.203Z,50.0
2023-05-21T02:16:02.169Z,50.0
2023-05-21T02:18:03.989Z,49.0
2023-05-21T02:20:10.835Z,49.0
2023-05-21T02:22:02.205Z,50.0
2023-05-21T02:24:02.265Z,51.0
2023-05-21T02:26:02.266Z,52.0
2023-05-21T02:28:02.549Z,53.0
2023-05-21T02:30:03.910Z,53.0
2023-05-21T02:32:02.379Z,53.0
2023-05-21T02:34:02.167Z,54.0
2023-05-21T02:36:03.698Z,55.0
2023-05-21T02:38:02.671Z,56.0
2023-05-21T02:40:03.759Z,57.0
2023-05-21T02:42:02.150Z,57.0
2023-05-21T02:44:02.743Z,58.0
2023-05-21T02:46:02.128Z,58.0
2023-05-21T02:48:02.280Z,58.0
2023-05-21T02:50:02.201Z,59.0
2023-05-21T02:52:02.268Z,58.0
2023-05-21T02:54:02.317Z,58.0
2023-05-21T02:56:02.929Z,57.0
2023-05-21T02:58:02.890Z,56.0
2023-05-21T03:00:03.596Z,56.0
2023-05-21T03:02:02.252Z,57.0
2023-05-21T03:04:03.005Z,57.0
2023-05-21T03:06:02.869Z,57.0
2023-05-21T03:08:02.965Z,59.0
2023-05-21T03:10:02.317Z,59.0
2023-05-21T03:12:02.100Z,58.0
2023-05-21T03:14:02.234Z,58.0
2023-05-21T03:16:02.243Z,56.0
2023-05-21T03:18:03.656Z,58.0
2023-05-21T03:20:04.967Z,57.0
2023-05-21T03:22:03.038Z,56.0
2023-05-21T03:24:02.632Z,57.0
2023-05-21T03:26:02.113Z,57.0
2023-05-21T03:28:02.421Z,56.0
2023-05-21T03:30:03.907Z,57.0
2023-05-21T03:32:03.452Z,57.0
2023-05-21T03:34:02.860Z,57.0
2023-05-21T03:36:02.094Z,57.0
2023-05-21T03:38:02.155Z,58.0
2023-05-21T03:40:02.847Z,58.0
2023-05-21T03:42:02.162Z,57.0
2023-05-21T03:44:03.558Z,57.0
2023-05-21T03:46:02.864Z,56.0
2023-05-21T03:48:02.707Z,57.0
2023-05-21T03:50:02.884Z,58.0
2023-05-21T03:52:02.133Z,58.0
2023-05-21T03:54:02.299Z,59.0
2023-05-21T03:56:02.555Z,59.0
2023-05-21T03:58:02.190Z,59.0
2023-05-21T04:00:04.219Z,60.0
2023-05-21T04:02:02.880Z,61.0
2023-05-21T04:04:02.329Z,61.0
2023-05-21T04:06:02.212Z,62.0
2023-05-21T04:08:02.565Z,62.0
2023-05-21T04:10:03.429Z,62.0
2023-05-21T04:12:02.493Z,63.0
2023-05-21T04:14:02.263Z,63.0
2023-05-21T04:16:02.178Z,64.0
2023-05-21T04:18:02.383Z,63.0
2023-05-21T04:20:03.511Z,63.0
2023-05-21T04:22:02.670Z,63.0
2023-05-21T04:24:02.091Z,63.0
2023-05-21T04:26:02.759Z,63.0
2023-05-21T04:28:02.139Z,63.0
2023-05-21T04:30:03.730Z,64.0
2023-05-21T04:32:02.321Z,64.0
2023-05-21T04:34:02.772Z,64.0
2023-05-21T04:36:03.279Z,64.0
2023-05-21T04:38:04.946Z,64.0
2023-05-21T04:40:03.699Z,65.0
2023-05-21T04:42:02.961Z,65.0
2023-05-21T04:44:02.282Z,65.0
2023-05-21T04:46:02.786Z,66.0
2023-05-21T04:48:03.154Z,66.0
2023-05-21T04:50:03.762Z,66.0
2023-05-21T04:52:03.102Z,66.0
2023-05-21T04:54:02.864Z,67.0
2023-05-21T04:56:03.327Z,67.0
2023-05-21T04:58:02.146Z,67.0
2023-05-21T05:00:03.291Z,68.0
2023-05-21T05:02:02.925Z,68.0
2023-05-21T05:04:02.905Z,69.0
2023-05-21T05:06:03.873Z,69.0
2023-05-21T05:08:03.674Z,69.0
2023-05-21T05:10:02.170Z,69.0
2023-05-21T05:12:02.069Z,70.0
2023-05-21T05:14:02.124Z,70.0
2023-05-21T05:16:02.427Z,71.0
2023-05-21T05:18:02.204Z,71.0
2023-05-21T05:20:03.455Z,71.0
2023-05-21T05:22:02.200Z,71.0
2023-05-21T05:24:02.116Z,71.0
2023-05-21T05:26:02.175Z,71.0
2023-05-21T05:28:02.301Z,71.0
2023-05-21T05:30:02.356Z,71.0
2023-05-21T05:32:02.858Z,71.0
2023-05-21T05:34:02.728Z,71.0
2023-05-21T05:36:02.130Z,72.0
2023-05-21T05:38:02.080Z,71.0
2023-05-21T05:40:02.332Z,71.0
2023-05-21T05:42:02.661Z,71.0
2023-05-21T05:44:02.359Z,71.0
2023-05-21T05:46:02.244Z,72.0
2023-05-21T05:48:02.241Z,71.0
2023-05-21T05:50:02.173Z,71.0
2023-05-21T05:52:02.835Z,71.0
2023-05-21T05:54:02.091Z,71.0
2023-05-21T05:56:02.633Z,71.0
2023-05-21T05:58:02.672Z,71.0
2023-05-21T06:00:02.196Z,71.0
2023-05-21T06:02:02.275Z,71.0
2023-05-21T06:04:02.341Z,71.0
2023-05-21T06:06:02.338Z,72.0
2023-05-21T06:08:02.888Z,72.0
2023-05-21T06:10:02.133Z,72.0
2023-05-21T06:12:02.081Z,72.0
2023-05-21T06:14:02.340Z,72.0
2023-05-21T06:16:02.128Z,73.0
2023-05-21T06:18:02.852Z,72.0
2023-05-21T06:20:03.592Z,73.0
2023-05-21T06:22:02.120Z,72.0
2023-05-21T06:24:02.082Z,72.0
2023-05-21T06:26:02.845Z,72.0
2023-05-21T06:28:02.326Z,72.0
2023-05-21T06:30:02.481Z,72.0
2023-05-21T06:32:02.873Z,72.0
2023-05-21T06:34:02.402Z,73.0
2023-05-21T06:36:02.136Z,73.0
2023-05-21T06:38:02.255Z,73.0
2023-05-21T06:40:03.295Z,73.0
2023-05-21T06:42:02.637Z,73.0
2023-05-21T06:44:02.378Z,74.0
2023-05-21T06:46:02.193Z,74.0
2023-05-21T06:48:02.187Z,74.0
2023-05-21T06:50:02.308Z,74.0
2023-05-21T06:52:02.687Z,74.0
2023-05-21T06:54:02.450Z,75.0
2023-05-21T06:56:02.255Z,75.0
2023-05-21T06:58:02.853Z,75.0
2023-05-21T07:00:02.172Z,74.0
2023-05-21T07:02:04.508Z,74.0
2023-05-21T07:04:02.095Z,74.0
2023-05-21T07:06:02.155Z,74.0
2023-05-21T07:08:02.295Z,75.0
2023-05-21T07:10:02.806Z,74.0
2023-05-21T07:12:03.021Z,75.0
2023-05-21T07:14:03.492Z,75.0
2023-05-21T07:16:02.196Z,75.0
2023-05-21T07:18:03.957Z,75.0
2023-05-21T07:20:02.595Z,75.0
2023-05-21T07:22:02.110Z,75.0
2023-05-21T07:24:02.310Z,75.0
2023-05-21T07:26:02.616Z,75.0
2023-05-21T07:28:04.600Z,75.0
2023-05-21T07:30:02.388Z,76.0
2023-05-21T07:32:02.845Z,75.0
2023-05-21T07:34:02.116Z,76.0
2023-05-21T07:36:02.261Z,76.0
2023-05-21T07:38:03.203Z,76.0
2023-05-21T07:40:02.474Z,76.0
2023-05-21T07:42:02.125Z,77.0
2023-05-21T07:44:02.319Z,76.0
2023-05-21T07:46:02.902Z,77.0
2023-05-21T07:48:02.875Z,77.0
2023-05-21T07:50:02.751Z,77.0
2023-05-21T07:52:02.428Z,77.0
2023-05-21T07:54:02.713Z,77.0
2023-05-21T07:56:02.861Z,77.0
2023-05-21T07:58:02.852Z,78.0
2023-05-21T08:00:02.126Z,78.0
2023-05-21T08:02:02.220Z,78.0
2023-05-21T08:04:05.618Z,79.0
2023-05-21T08:06:02.125Z,78.0
2023-05-21T08:08:04.488Z,79.0
2023-05-21T08:10:02.974Z,79.0
2023-05-21T08:12:02.086Z,79.0
2023-05-21T08:14:03.460Z,79.0
2023-05-21T08:16:02.251Z,79.0
2023-05-21T08:18:02.203Z,79.0
2023-05-21T08:20:03.222Z,79.0
2023-05-21T08:22:02.871Z,79.0
2023-05-21T08:24:02.460Z,79.0
2023-05-21T08:26:02.090Z,79.0
2023-05-21T08:28:02.755Z,80.0
2023-05-21T08:30:02.110Z,80.0
2023-05-21T08:32:03.016Z,80.0
2023-05-21T08:34:02.237Z,80.0
2023-05-21T08:36:02.073Z,81.0
2023-05-21T08:38:02.093Z,81.0
2023-05-21T08:40:03.746Z,81.0
2023-05-21T08:42:11.566Z,81.0
2023-05-21T08:44:03.863Z,82.0
2023-05-21T08:46:04.886Z,82.0
2023-05-21T08:48:02.502Z,82.0
2023-05-21T08:50:03.825Z,82.0
2023-05-21T08:52:03.171Z,82.0
2023-05-21T08:54:04.174Z,82.0
2023-05-21T08:56:03.220Z,82.0
2023-05-21T08:58:04.517Z,82.0
2023-05-21T09:00:04.265Z,82.0
2023-05-21T09:02:03.022Z,82.0
2023-05-21T09:04:18.908Z,83.0
2023-05-21T09:06:03.532Z,83.0
2023-05-21T09:08:07.390Z,82.0
2023-05-21T09:10:07.688Z,83.0
2023-05-21T09:12:02.734Z,83.0
2023-05-21T09:14:02.662Z,83.0
2023-05-21T09:16:02.436Z,83.0
2023-05-21T09:18:02.248Z,83.0
2023-05-21T09:20:12.776Z,82.0
2023-05-21T09:22:03.176Z,83.0
2023-05-21T09:24:02.330Z,83.0
2023-05-21T09:26:10.777Z,82.0
2023-05-21T09:28:03.016Z,83.0
2023-05-21T09:30:03.945Z,83.0
2023-05-21T09:32:07.466Z,83.0
2023-05-21T09:34:03.105Z,83.0
2023-05-21T09:36:02.069Z,83.0
2023-05-21T09:38:02.168Z,83.0
2023-05-21T09:40:03.158Z,83.0
2023-05-21T09:42:02.192Z,83.0
2023-05-21T09:44:02.817Z,83.0
2023-05-21T09:46:02.799Z,83.0
2023-05-21T09:48:02.326Z,83.0
2023-05-21T09:50:02.144Z,83.0
2023-05-21T09:52:02.622Z,83.0
2023-05-21T09:54:03.535Z,83.0
2023-05-21T09:56:03.310Z,83.0
2023-05-21T09:58:04.101Z,83.0
2023-05-21T10:00:02.152Z,83.0
2023-05-21T10:02:02.774Z,83.0
2023-05-21T10:04:07.013Z,83.0
2023-05-21T10:06:02.720Z,83.0
2023-05-21T10:08:04.322Z,83.0
2023-05-21T10:10:04.333Z,83.0
2023-05-21T10:12:03.046Z,83.0
2023-05-21T10:14:06.025Z,84.0
2023-05-21T10:16:03.137Z,83.0
2023-05-21T10:18:04.404Z,83.0
2023-05-21T10:20:04.552Z,83.0
2023-05-21T10:22:03.889Z,83.0
2023-05-21T10:24:03.605Z,84.0
2023-05-21T10:26:03.680Z,83.0
2023-05-21T10:28:03.280Z,84.0
2023-05-21T10:30:04.280Z,84.0
2023-05-21T10:32:02.716Z,84.0
2023-05-21T10:34:05.761Z,84.0
2023-05-21T10:36:02.460Z,84.0
2023-05-21T10:38:04.681Z,84.0
2023-05-21T10:40:03.934Z,84.0
2023-05-21T10:42:09.581Z,84.0
2023-05-21T10:44:11.155Z,84.0
2023-05-21T10:46:21.186Z,84.0
2023-05-21T10:48:16.198Z,84.0
2023-05-21T10:50:21.248Z,85.0
2023-05-21T10:52:09.031Z,84.0
2023-05-21T10:54:21.197Z,85.0
2023-05-21T10:56:17.954Z,85.0
2023-05-21T10:58:21.255Z,85.0
2023-05-21T11:00:04.405Z,85.0
2023-05-21T11:02:03.616Z,85.0
2023-05-21T11:04:03.341Z,85.0
2023-05-21T11:06:04.775Z,85.0
2023-05-21T11:08:02.130Z,85.0
2023-05-21T11:10:21.337Z,85.0
2023-05-21T11:12:04.028Z,85.0
2023-05-21T11:14:12.091Z,85.0
2023-05-21T11:16:06.559Z,85.0
2023-05-21T11:18:02.352Z,85.0
2023-05-21T11:20:07.637Z,85.0
2023-05-21T11:22:06.419Z,85.0
2023-05-21T11:24:06.040Z,85.0
2023-05-21T11:26:02.190Z,86.0
2023-05-21T11:28:08.774Z,86.0
2023-05-21T11:30:05.290Z,85.0
2023-05-21T11:32:02.684Z,85.0
2023-05-21T11:34:13.591Z,85.0
2023-05-21T11:36:02.894Z,85.0
2023-05-21T11:38:02.270Z,85.0
2023-05-21T11:40:20.957Z,85.0
2023-05-21T11:42:04.725Z,85.0
2023-05-21T11:44:02.069Z,85.0
2023-05-21T11:46:02.996Z,85.0
2023-05-21T11:48:03.421Z,85.0
2023-05-21T11:50:04.084Z,85.0
2023-05-21T11:52:03.853Z,85.0
2023-05-21T11:54:03.333Z,85.0
2023-05-21T11:56:02.413Z,85.0
2023-05-21T11:58:03.460Z,85.0
2023-05-21T12:00:12.070Z,85.0
2023-05-21T12:02:04.252Z,85.0
2023-05-21T12:04:04.380Z,85.0
2023-05-21T12:06:06.187Z,85.0
2023-05-21T12:08:03.414Z,85.0
2023-05-21T12:10:02.127Z,85.0
2023-05-21T12:12:04.913Z,85.0
2023-05-21T12:14:02.210Z,86.0
2023-05-21T12:16:05.963Z,85.0
2023-05-21T12:18:02.719Z,85.0
2023-05-21T12:20:06.265Z,85.0
2023-05-21T12:22:02.878Z,85.0
2023-05-21T12:24:03.044Z,86.0
2023-05-21T12:26:02.911Z,86.0
2023-05-21T12:28:04.784Z,85.0
2023-05-21T12:30:03.539Z,85.0
2023-05-21T12:32:04.990Z,86.0
2023-05-21T12:34:02.136Z,85.0
2023-05-21T12:36:03.284Z,86.0
2023-05-21T12:38:03.204Z,86.0
2023-05-21T12:40:04.679Z,85.0
2023-05-21T12:42:03.153Z,85.0
2023-05-21T12:44:02.207Z,85.0
2023-05-21T12:46:02.170Z,85.0
2023-05-21T12:48:02.500Z,86.0
2023-05-21T12:50:04.022Z,85.0
2023-05-21T12:52:08.882Z,86.0
2023-05-21T12:54:02.134Z,86.0
2023-05-21T12:56:07.734Z,86.0
2023-05-21T12:58:04.508Z,86.0
2023-05-21T13:00:06.119Z,86.0
2023-05-21T13:02:02.387Z,85.0
2023-05-21T13:04:04.645Z,86.0
2023-05-21T13:06:03.118Z,86.0
2023-05-21T13:08:02.218Z,86.0
2023-05-21T13:10:04.088Z,86.0
2023-05-21T13:12:02.871Z,86.0
2023-05-21T13:14:02.102Z,86.0
2023-05-21T13:16:02.469Z,86.0
2023-05-21T13:18:02.157Z,86.0
2023-05-21T13:20:07.640Z,86.0
2023-05-21T13:22:03.413Z,86.0
2023-05-21T13:24:02.080Z,86.0
2023-05-21T13:26:02.185Z,86.0
2023-05-21T13:28:04.553Z,85.0
2023-05-21T13:30:02.286Z,86.0
2023-05-21T13:32:02.180Z,85.0
2023-05-21T13:34:04.278Z,85.0
2023-05-21T13:36:02.699Z,85.0
2023-05-21T13:38:02.840Z,86.0
2023-05-21T13:40:03.375Z,86.0
2023-05-21T13:42:02.175Z,86.0
2023-05-21T13:44:02.090Z,86.0
2023-05-21T13:46:03.928Z,86.0
2023-05-21T13:48:02.258Z,86.0
2023-05-21T13:50:02.295Z,87.0
2023-05-21T13:52:03.332Z,86.0
2023-05-21T13:54:02.748Z,86.0
2023-05-21T13:56:04.356Z,86.0
2023-05-21T13:58:02.879Z,86.0
2023-05-21T14:00:02.153Z,87.0
2023-05-21T14:02:02.279Z,87.0
2023-05-21T14:04:04.929Z,87.0
2023-05-21T14:06:02.072Z,87.0
2023-05-21T14:08:02.850Z,87.0
2023-05-21T14:10:02.460Z,87.0
2023-05-21T14:12:06.236Z,88.0
2023-05-21T14:14:02.557Z,88.0
2023-05-21T14:16:02.281Z,88.0
2023-05-21T14:18:07.066Z,88.0
2023-05-21T14:20:02.309Z,88.0
2023-05-21T14:22:02.647Z,88.0
2023-05-21T14:24:02.102Z,88.0
2023-05-21T14:26:02.846Z,88.0
2023-05-21T14:28:05.780Z,89.0
2023-05-21T14:30:02.386Z,89.0
2023-05-21T14:32:02.118Z,88.0
2023-05-21T14:34:03.209Z,88.0
2023-05-21T14:36:03.416Z,89.0
2023-05-21T14:38:02.264Z,89.0
2023-05-21T14:40:04.955Z,89.0
2023-05-21T14:42:03.347Z,89.0
2023-05-21T14:44:02.489Z,89.0
2023-05-21T14:46:03.027Z,89.0
2023-05-21T14:48:07.641Z,89.0
2023-05-21T14:50:02.846Z,89.0
2023-05-21T14:52:03.161Z,89.0
2023-05-21T14:54:02.157Z,89.0
2023-05-21T14:56:02.094Z,89.0
2023-05-21T14:58:03.312Z,89.0
2023-05-21T15:00:02.202Z,89.0
2023-05-21T15:02:02.334Z,89.0
2023-05-21T15:04:02.971Z,89.0
2023-05-21T15:06:02.159Z,89.0
2023-05-21T15:08:04.027Z,89.0
2023-05-21T15:10:02.200Z,89.0
2023-05-21T15:12:02.078Z,89.0
2023-05-21T15:14:02.258Z,88.0
2023-05-21T15:16:02.566Z,88.0
2023-05-21T15:18:02.123Z,89.0
2023-05-21T15:20:03.949Z,89.0
2023-05-21T15:22:02.280Z,89.0
2023-05-21T15:24:02.247Z,89.0
2023-05-21T15:26:02.256Z,89.0
2023-05-21T15:28:02.703Z,89.0
2023-05-21T15:30:04.060Z,89.0
2023-05-21T15:32:04.545Z,89.0
2023-05-21T15:34:02.714Z,89.0
2023-05-21T15:36:02.141Z,89.0
2023-05-21T15:38:02.953Z,89.0
2023-05-21T15:40:02.421Z,89.0
2023-05-21T15:42:02.137Z,89.0
2023-05-21T15:44:02.089Z,89.0
2023-05-21T15:46:02.114Z,89.0
2023-05-21T15:48:02.141Z,88.0
2023-05-21T15:50:02.646Z,88.0
2023-05-21T15:52:02.874Z,88.0
2023-05-21T15:54:02.095Z,88.0
2023-05-21T15:56:02.680Z,88.0
2023-05-21T15:58:03.019Z,88.0
2023-05-21T16:00:03.241Z,89.0
2023-05-21T16:02:03.005Z,89.0
2023-05-21T16:04:03.251Z,88.0
2023-05-21T16:06:03.632Z,88.0
2023-05-21T16:08:02.133Z,88.0
2023-05-21T16:10:02.364Z,88.0
2023-05-21T16:12:02.395Z,89.0
2023-05-21T16:14:02.272Z,89.0
2023-05-21T16:16:02.324Z,89.0
2023-05-21T16:18:02.333Z,89.0
2023-05-21T16:20:02.768Z,89.0
2023-05-21T16:22:02.251Z,90.0
2023-05-21T16:24:02.736Z,90.0
2023-05-21T16:26:02.617Z,90.0
2023-05-21T16:28:02.395Z,90.0
2023-05-21T16:30:02.139Z,90.0
2023-05-21T16:32:02.247Z,90.0
2023-05-21T16:34:02.931Z,90.0
2023-05-21T16:36:02.112Z,91.0
2023-05-21T16:38:02.815Z,91.0
2023-05-21T16:40:04.068Z,91.0
2023-05-21T16:42:02.141Z,91.0
2023-05-21T16:44:02.230Z,91.0
2023-05-21T16:46:02.369Z,91.0
2023-05-21T16:48:02.138Z,91.0
2023-05-21T16:50:02.263Z,91.0
2023-05-21T16:52:02.922Z,91.0
2023-05-21T16:54:03.601Z,91.0
2023-05-21T16:56:02.058Z,91.0
2023-05-21T16:58:04.803Z,91.0
2023-05-21T17:00:03.546Z,91.0
2023-05-21T17:02:02.373Z,91.0
2023-05-21T17:04:02.353Z,91.0
2023-05-21T17:06:02.644Z,91.0
2023-05-21T17:08:02.192Z,90.0
2023-05-21T17:10:02.279Z,91.0
2023-05-21T17:12:02.154Z,91.0
2023-05-21T17:14:02.238Z,91.0
2023-05-21T17:16:02.519Z,91.0
2023-05-21T17:18:02.154Z,91.0
2023-05-21T17:20:03.708Z,92.0
2023-05-21T17:22:02.170Z,91.0
2023-05-21T17:24:02.657Z,91.0
2023-05-21T17:26:02.306Z,90.0
2023-05-21T17:28:02.327Z,90.0
2023-05-21T17:30:03.403Z,90.0
2023-05-21T17:32:03.139Z,91.0
2023-05-21T17:34:02.203Z,90.0
2023-05-21T17:36:02.883Z,90.0
2023-05-21T17:38:02.261Z,90.0
2023-05-21T17:40:03.347Z,88.0
2023-05-21T17:42:02.635Z,88.0
2023-05-21T17:44:02.741Z,88.0
2023-05-21T17:46:02.129Z,88.0
2023-05-21T17:48:02.140Z,88.0
2023-05-21T17:50:02.284Z,89.0
2023-05-21T17:52:03.963Z,89.0
2023-05-21T17:54:03.055Z,88.0
2023-05-21T17:56:02.741Z,88.0
2023-05-21T17:58:02.122Z,88.0
2023-05-21T18:00:02.255Z,88.0
2023-05-21T18:02:02.808Z,88.0
2023-05-21T18:04:04.144Z,87.0
2023-05-21T18:06:02.140Z,87.0
2023-05-21T18:08:02.400Z,87.0
2023-05-21T18:10:02.229Z,88.0
2023-05-21T18:12:05.125Z,88.0
2023-05-21T18:14:03.413Z,85.0
2023-05-21T18:16:02.493Z,84.0
2023-05-21T18:18:02.133Z,84.0
2023-05-21T18:20:03.683Z,84.0
2023-05-21T18:22:02.222Z,83.0
2023-05-21T18:24:02.875Z,82.0
2023-05-21T18:26:02.488Z,82.0
2023-05-21T18:28:03.152Z,83.0
2023-05-21T18:30:04.722Z,83.0
2023-05-21T18:32:02.332Z,82.0
2023-05-21T18:34:02.191Z,81.0
2023-05-21T18:36:02.872Z,81.0
2023-05-21T18:38:03.448Z,79.0
2023-05-21T18:40:04.942Z,79.0
2023-05-21T18:42:12.802Z,79.0
2023-05-21T18:44:02.274Z,79.0
2023-05-21T18:46:02.716Z,78.0
2023-05-21T18:48:02.709Z,78.0
2023-05-21T18:50:03.098Z,78.0
2023-05-21T18:52:02.469Z,78.0
2023-05-21T18:54:02.222Z,79.0
2023-05-21T18:56:04.139Z,78.0
2023-05-21T18:58:02.255Z,77.0
2023-05-21T19:00:02.770Z,77.0
2023-05-21T19:02:03.041Z,78.0
2023-05-21T19:04:03.677Z,78.0
2023-05-21T19:06:02.900Z,78.0
2023-05-21T19:08:02.697Z,77.0
2023-05-21T19:10:03.096Z,78.0
2023-05-21T19:12:02.793Z,79.0
2023-05-21T19:14:02.293Z,78.0
2023-05-21T19:16:02.685Z,78.0
2023-05-21T19:18:02.975Z,79.0
2023-05-21T19:20:04.870Z,78.0
2023-05-21T19:22:03.009Z,78.0
2023-05-21T19:24:04.196Z,79.0
2023-05-21T19:26:02.476Z,79.0
2023-05-21T19:28:02.357Z,79.0
2023-05-21T19:30:02.123Z,80.0
2023-05-21T19:32:02.440Z,78.0
2023-05-21T19:34:03.849Z,79.0
2023-05-21T19:36:02.339Z,78.0
2023-05-21T19:38:05.066Z,77.0
2023-05-21T19:40:02.406Z,76.0
2023-05-21T19:42:02.631Z,77.0
2023-05-21T19:44:02.141Z,77.0
2023-05-21T19:46:02.156Z,78.0
2023-05-21T19:48:02.240Z,77.0
2023-05-21T19:50:02.432Z,77.0
2023-05-21T19:52:02.414Z,76.0
2023-05-21T19:54:02.277Z,77.0
2023-05-21T19:56:02.229Z,77.0
2023-05-21T19:58:02.200Z,77.0
2023-05-21T20:00:03.834Z,77.0
2023-05-21T20:02:02.351Z,77.0
2023-05-21T20:04:02.972Z,77.0
2023-05-21T20:06:02.271Z,78.0
2023-05-21T20:08:02.311Z,78.0
2023-05-21T20:10:02.345Z,78.0
2023-05-21T20:12:02.761Z,78.0
2023-05-21T20:14:03.759Z,78.0
2023-05-21T20:16:03.208Z,79.0
2023-05-21T20:18:03.332Z,78.0
2023-05-21T20:20:06.638Z,79.0
2023-05-21T20:22:03.328Z,79.0
2023-05-21T20:24:02.798Z,78.0
2023-05-21T20:26:02.297Z,78.0
2023-05-21T20:28:04.630Z,79.0
2023-05-21T20:30:02.125Z,78.0
2023-05-21T20:32:02.693Z,78.0
2023-05-21T20:34:06.812Z,77.0
2023-05-21T20:36:03.599Z,78.0
2023-05-21T20:38:02.296Z,78.0
2023-05-21T20:40:05.754Z,78.0
2023-05-21T20:42:02.108Z,78.0
2023-05-21T20:44:04.245Z,78.0
2023-05-21T20:46:05.116Z,78.0
2023-05-21T20:48:03.822Z,77.0
2023-05-21T20:50:02.587Z,77.0
2023-05-21T20:52:02.561Z,76.0
2023-05-21T20:54:02.138Z,77.0
2023-05-21T20:56:02.104Z,77.0
2023-05-21T20:58:04.007Z,75.0
2023-05-21T21:00:04.055Z,75.0
2023-05-21T21:02:02.459Z,76.0
2023-05-21T21:04:02.783Z,76.0
2023-05-21T21:06:03.562Z,76.0
2023-05-21T21:08:02.407Z,76.0
2023-05-21T21:10:02.418Z,75.0
2023-05-21T21:12:11.313Z,76.0
2023-05-21T21:14:04.729Z,76.0
2023-05-21T21:16:03.195Z,76.0
2023-05-21T21:18:02.748Z,76.0
2023-05-21T21:20:02.094Z,76.0
2023-05-21T21:22:02.418Z,76.0
2023-05-21T21:24:02.141Z,76.0
2023-05-21T21:26:03.114Z,75.0
2023-05-21T21:28:02.642Z,76.0
2023-05-21T21:30:02.123Z,75.0
2023-05-21T21:32:02.230Z,76.0
2023-05-21T21:34:02.315Z,76.0
2023-05-21T21:36:02.097Z,76.0
2023-05-21T21:38:04.322Z,77.0
2023-05-21T21:40:02.840Z,76.0
2023-05-21T21:42:02.196Z,76.0
2023-05-21T21:44:02.186Z,76.0
2023-05-21T21:46:02.966Z,76.0
2023-05-21T21:48:02.217Z,76.0
2023-05-21T21:50:02.763Z,77.0
2023-05-21T21:52:02.373Z,78.0
2023-05-21T21:54:02.085Z,78.0
2023-05-21T21:56:02.831Z,78.0
2023-05-21T21:58:02.460Z,77.0
2023-05-21T22:00:10.650Z,77.0
2023-05-21T22:02:02.765Z,77.0
2023-05-21T22:04:02.904Z,75.0
2023-05-21T22:06:02.863Z,75.0
2023-05-21T22:08:02.931Z,75.0
2023-05-21T22:10:02.169Z,76.0
2023-05-21T22:12:07.004Z,77.0
2023-05-21T22:14:03.699Z,77.0
2023-05-21T22:16:03.039Z,76.0
2023-05-21T22:18:02.815Z,75.0
2023-05-21T22:20:02.845Z,75.0
2023-05-21T22:22:03.649Z,76.0
2023-05-21T22:24:02.145Z,75.0
2023-05-21T22:26:03.228Z,75.0
2023-05-21T22:28:02.418Z,75.0
2023-05-21T22:30:03.160Z,74.0
2023-05-21T22:32:02.121Z,73.0
2023-05-21T22:34:03.090Z,73.0
2023-05-21T22:36:02.166Z,73.0
2023-05-21T22:38:02.896Z,73.0
2023-05-21T22:40:03.896Z,73.0
2023-05-21T22:42:02.560Z,74.0
2023-05-21T22:44:02.115Z,75.0
2023-05-21T22:46:02.532Z,75.0
2023-05-21T22:48:06.300Z,75.0
2023-05-21T22:50:03.808Z,75.0
2023-05-21T22:52:04.709Z,75.0
2023-05-21T22:54:02.852Z,76.0
2023-05-21T22:56:02.158Z,76.0
2023-05-21T22:58:02.899Z,75.0
2023-05-21T23:00:02.299Z,76.0
2023-05-21T23:02:02.372Z,76.0
2023-05-21T23:04:02.489Z,76.0
2023-05-21T23:06:02.127Z,77.0
2023-05-21T23:08:02.740Z,76.0
2023-05-21T23:10:03.002Z,77.0
2023-05-21T23:12:02.793Z,77.0
2023-05-21T23:14:02.245Z,77.0
2023-05-21T23:16:03.322Z,77.0
2023-05-21T23:18:03.316Z,77.0
2023-05-21T23:20:02.892Z,76.0
2023-05-21T23:22:02.577Z,76.0
2023-05-21T23:24:02.710Z,76.0
2023-05-21T23:26:02.269Z,75.0
2023-05-21T23:28:02.665Z,76.0
2023-05-21T23:30:02.098Z,76.0
2023-05-21T23:32:04.464Z,76.0
2023-05-21T23:34:04.076Z,76.0
2023-05-21T23:36:02.719Z,77.0
2023-05-21T23:38:03.032Z,77.0
2023-05-21T23:40:02.677Z,77.0
2023-05-21T23:42:02.557Z,77.0
2023-05-21T23:44:03.027Z,77.0
2023-05-21T23:46:02.366Z,78.0
2023-05-21T23:48:02.128Z,77.0
2023-05-21T23:50:02.363Z,77.0
2023-05-21T23:52:02.577Z,78.0
2023-05-21T23:54:02.115Z,78.0
2023-05-21T23:56:02.899Z,78.0
2023-05-21T23:58:03.264Z,78.0
